Time;durP1;ratioP1;P1;durP2;ratioP2;P2;SDS_P1;SDS_P2;PMS_P1;PMS_P2;Temp;Humidity;BMP_temperature;BMP_pressure;BME280_temperature;BME280_humidity;BME280_pressure;Samples;Min_cycle;Max_cycle;Signal;HPM_P1;HPM_P2
2022/07/19 00:00:54;;;;;;;7.78;7.18;;;;;;;;;;5032746;28;20050;-78
2022/07/19 00:03:21;;;;;;;8.68;7.88;;;;;;;;;;5033073;28;20046;-78
2022/07/19 00:05:47;;;;;;;9.10;8.30;;;;;;;;;;5033360;28;20124;-78
2022/07/19 00:08:13;;;;;;;8.85;8.10;;;;;;;;;;5032986;28;20431;-78
2022/07/19 00:10:39;;;;;;;9.30;8.35;;;;;;;;;;5033210;28;20045;-78
2022/07/19 00:13:05;;;;;;;8.50;7.80;;;;;;;;;;5033811;28;20415;-78
2022/07/19 00:15:31;;;;;;;9.35;8.00;;;;;;;;;;5034250;28;20041;-78
2022/07/19 00:17:57;;;;;;;9.75;8.85;;;;;;;;;;5034388;28;20103;-78
2022/07/19 00:20:24;;;;;;;10.10;7.78;;;;;;;;;;5034430;28;20045;-78
2022/07/19 00:22:50;;;;;;;9.05;8.23;;;;;;;;;;5035255;28;20091;-79
2022/07/19 00:25:16;;;;;;;8.60;7.80;;;;;;;;;;5034954;28;20037;-78
2022/07/19 00:27:42;;;;;;;8.20;7.40;;;;;;;;;;5034475;28;20124;-78
2022/07/19 00:30:09;;;;;;;8.18;7.40;;;;;;;;;;5034289;28;20128;-78
2022/07/19 00:32:35;;;;;;;8.30;7.30;;;;;;;;;;5034613;28;20048;-79
2022/07/19 00:35:01;;;;;;;8.27;7.57;;;;;;;;;;5034324;28;20120;-78
2022/07/19 00:37:27;;;;;;;12.57;8.38;;;;;;;;;;5034642;28;20049;-78
2022/07/19 00:39:53;;;;;;;9.32;8.38;;;;;;;;;;5034643;28;20041;-78
2022/07/19 00:42:19;;;;;;;11.32;8.30;;;;;;;;;;5034616;28;20549;-78
2022/07/19 00:44:46;;;;;;;8.93;8.23;;;;;;;;;;5034558;28;20049;-78
2022/07/19 00:47:12;;;;;;;9.23;8.32;;;;;;;;;;5034312;28;20057;-78
2022/07/19 00:49:38;;;;;;;8.98;8.27;;;;;;;;;;5033920;28;20041;-79
2022/07/19 00:52:04;;;;;;;9.10;8.30;;;;;;;;;;5034117;28;20056;-79
2022/07/19 00:54:34;;;;;;;8.80;8.10;;;;;;;;;;5034504;28;20052;-79
2022/07/19 00:57:00;;;;;;;8.70;7.95;;;;;;;;;;5034115;28;20045;-78
2022/07/19 00:59:27;;;;;;;9.52;8.60;;;;;;;;;;5034284;28;20120;-78
2022/07/19 01:01:54;;;;;;;9.82;8.80;;;;;;;;;;5034131;28;20132;-78
2022/07/19 01:04:20;;;;;;;8.90;8.10;;;;;;;;;;5033928;28;20045;-78
2022/07/19 01:06:47;;;;;;;8.98;7.88;;;;;;;;;;5033567;28;20574;-78
2022/07/19 01:09:13;;;;;;;9.77;8.07;;;;;;;;;;5034994;28;20063;-78
2022/07/19 01:11:40;;;;;;;9.10;8.30;;;;;;;;;;5037547;28;20092;-79
2022/07/19 01:14:06;;;;;;;8.60;7.80;;;;;;;;;;5037561;28;20045;-78
2022/07/19 01:16:32;;;;;;;8.25;7.50;;;;;;;;;;5037859;28;20041;-78
2022/07/19 01:18:58;;;;;;;8.05;7.25;;;;;;;;;;5037791;28;20040;-78
2022/07/19 01:21:26;;;;;;;8.60;7.85;;;;;;;;;;5037759;28;20045;-77
2022/07/19 01:23:52;;;;;;;15.55;7.97;;;;;;;;;;5036945;28;20065;-77
2022/07/19 01:26:19;;;;;;;9.07;8.13;;;;;;;;;;5037343;28;20492;-77
2022/07/19 01:28:46;;;;;;;8.57;7.70;;;;;;;;;;5037398;28;20115;-78
2022/07/19 01:31:12;;;;;;;8.75;7.95;;;;;;;;;;5037299;28;20095;-78
2022/07/19 01:33:42;;;;;;;8.25;7.65;;;;;;;;;;5037147;28;20106;-77
2022/07/19 01:36:08;;;;;;;9.07;8.18;;;;;;;;;;5037588;28;20073;-78
2022/07/19 01:38:35;;;;;;;8.32;7.10;;;;;;;;;;5036860;28;20041;-77
2022/07/19 01:41:01;;;;;;;9.35;8.00;;;;;;;;;;5036910;28;20091;-77
2022/07/19 01:43:27;;;;;;;9.00;8.10;;;;;;;;;;5037489;28;20045;-78
2022/07/19 01:45:53;;;;;;;8.88;8.20;;;;;;;;;;5037131;28;20181;-77
2022/07/19 01:48:20;;;;;;;8.60;7.80;;;;;;;;;;5037823;28;20099;-77
2022/07/19 01:50:46;;;;;;;8.27;7.53;;;;;;;;;;5037488;28;20040;-78
2022/07/19 01:53:12;;;;;;;8.32;7.47;;;;;;;;;;5037728;28;20049;-78
2022/07/19 01:55:38;;;;;;;8.30;7.60;;;;;;;;;;5037379;28;20037;-78
2022/07/19 01:58:05;;;;;;;8.50;7.68;;;;;;;;;;5037264;28;20153;-78
2022/07/19 02:00:31;;;;;;;9.32;8.50;;;;;;;;;;5036843;28;20041;-78
2022/07/19 02:02:57;;;;;;;7.63;7.03;;;;;;;;;;5036999;28;20068;-78
2022/07/19 02:05:23;;;;;;;9.15;7.70;;;;;;;;;;5037844;28;20476;-78
2022/07/19 02:07:50;;;;;;;9.00;8.20;;;;;;;;;;5036874;28;20480;-78
2022/07/19 02:10:16;;;;;;;8.30;7.55;;;;;;;;;;5037084;28;20044;-78
2022/07/19 02:12:42;;;;;;;8.77;7.95;;;;;;;;;;5037195;28;20132;-78
2022/07/19 02:15:08;;;;;;;9.50;8.10;;;;;;;;;;5036544;28;20516;-78
2022/07/19 02:17:35;;;;;;;8.00;7.25;;;;;;;;;;5036775;28;20052;-77
2022/07/19 02:20:01;;;;;;;8.85;8.05;;;;;;;;;;5036708;28;20089;-78
2022/07/19 02:22:27;;;;;;;9.18;8.27;;;;;;;;;;5037449;28;20046;-78
2022/07/19 02:24:54;;;;;;;8.90;8.05;;;;;;;;;;5036637;28;20056;-78
2022/07/19 02:27:20;;;;;;;8.27;7.57;;;;;;;;;;5037104;28;20044;-77
2022/07/19 02:29:46;;;;;;;8.95;7.63;;;;;;;;;;5036338;28;20037;-78
2022/07/19 02:32:12;;;;;;;8.77;7.95;;;;;;;;;;5036993;28;20087;-78
2022/07/19 02:34:38;;;;;;;8.15;7.43;;;;;;;;;;5036639;28;20492;-78
2022/07/19 02:37:04;;;;;;;9.00;8.20;;;;;;;;;;5036544;28;20128;-78
2022/07/19 02:39:30;;;;;;;9.57;8.15;;;;;;;;;;5036502;28;20096;-78
2022/07/19 02:41:57;;;;;;;8.77;8.07;;;;;;;;;;5036133;28;20124;-78
2022/07/19 02:44:23;;;;;;;8.40;7.70;;;;;;;;;;5036714;28;20046;-78
2022/07/19 02:46:49;;;;;;;8.90;8.00;;;;;;;;;;5036603;28;20045;-78
2022/07/19 02:49:15;;;;;;;10.65;8.20;;;;;;;;;;5018631;28;20452;-77
2022/07/19 02:51:42;;;;;;;8.68;7.72;;;;;;;;;;5036333;28;20063;-77
2022/07/19 02:54:08;;;;;;;9.30;8.40;;;;;;;;;;5036645;28;20049;-78
2022/07/19 02:56:36;;;;;;;8.90;8.00;;;;;;;;;;5036263;28;20084;-77
2022/07/19 02:59:03;;;;;;;8.30;7.57;;;;;;;;;;5036107;28;20029;-77
2022/07/19 03:01:29;;;;;;;9.77;8.32;;;;;;;;;;5035741;28;20037;-77
2022/07/19 03:03:56;;;;;;;9.10;8.30;;;;;;;;;;5035503;28;20384;-77
2022/07/19 03:06:22;;;;;;;9.00;8.10;;;;;;;;;;5035738;28;20410;-78
2022/07/19 03:08:48;;;;;;;9.15;8.20;;;;;;;;;;5036266;28;20124;-78
2022/07/19 03:11:14;;;;;;;9.70;8.80;;;;;;;;;;5035861;28;20080;-77
2022/07/19 03:13:41;;;;;;;9.70;7.90;;;;;;;;;;5035685;28;20448;-78
2022/07/19 03:16:07;;;;;;;9.48;8.68;;;;;;;;;;5036090;28;20052;-77
2022/07/19 03:18:33;;;;;;;9.35;8.55;;;;;;;;;;5035866;28;20088;-78
2022/07/19 03:21:00;;;;;;;9.55;8.65;;;;;;;;;;5035776;28;20046;-78
2022/07/19 03:23:32;;;;;;;10.80;8.98;;;;;;;;;;5036340;28;20499;-77
2022/07/19 03:25:58;;;;;;;9.63;8.68;;;;;;;;;;5035933;28;20041;-77
2022/07/19 03:28:24;;;;;;;9.18;8.27;;;;;;;;;;5035471;28;20041;-78
2022/07/19 03:30:50;;;;;;;9.82;8.82;;;;;;;;;;5035437;28;20033;-77
2022/07/19 03:33:17;;;;;;;9.77;8.77;;;;;;;;;;5035675;28;20049;-77
2022/07/19 03:35:44;;;;;;;9.75;8.95;;;;;;;;;;5035048;28;20037;-77
2022/07/19 03:38:10;;;;;;;9.38;8.68;;;;;;;;;;5035358;28;20041;-78
2022/07/19 03:40:37;;;;;;;9.10;8.40;;;;;;;;;;5035287;28;20038;-78
2022/07/19 03:43:03;;;;;;;9.82;8.70;;;;;;;;;;5035763;28;20056;-78
2022/07/19 03:45:29;;;;;;;9.40;8.60;;;;;;;;;;5034842;28;20053;-77
2022/07/19 03:47:55;;;;;;;10.07;9.07;;;;;;;;;;5017327;28;20403;-77
2022/07/19 03:50:21;;;;;;;9.85;9.05;;;;;;;;;;5035012;28;20045;-77
2022/07/19 03:52:48;;;;;;;9.20;8.43;;;;;;;;;;5034634;28;20416;-77
2022/07/19 03:55:14;;;;;;;10.25;9.25;;;;;;;;;;5034992;28;20052;-77
2022/07/19 03:57:40;;;;;;;9.60;8.60;;;;;;;;;;5034770;28;20049;-77
2022/07/19 04:00:06;;;;;;;10.45;8.43;;;;;;;;;;5034370;28;20068;-77
2022/07/19 04:02:32;;;;;;;9.52;8.77;;;;;;;;;;5034746;28;20041;-77
2022/07/19 04:04:59;;;;;;;10.25;9.25;;;;;;;;;;5034361;28;20055;-77
2022/07/19 04:07:25;;;;;;;11.57;9.00;;;;;;;;;;5034772;28;20103;-77
2022/07/19 04:09:51;;;;;;;9.65;8.93;;;;;;;;;;5034855;28;20039;-78
2022/07/19 04:12:17;;;;;;;9.50;8.60;;;;;;;;;;5034935;28;20095;-77
2022/07/19 04:14:43;;;;;;;10.38;9.48;;;;;;;;;;5034715;28;20106;-77
2022/07/19 04:17:09;;;;;;;9.63;8.73;;;;;;;;;;5034640;28;20045;-77
2022/07/19 04:19:35;;;;;;;10.13;9.05;;;;;;;;;;5034092;28;20068;-77
2022/07/19 04:22:02;;;;;;;9.70;8.68;;;;;;;;;;5034803;28;20072;-77
2022/07/19 04:24:28;;;;;;;9.90;9.10;;;;;;;;;;5034820;28;20041;-77
2022/07/19 04:26:54;;;;;;;10.13;9.13;;;;;;;;;;5034352;28;20126;-77
2022/07/19 04:29:20;;;;;;;10.50;9.55;;;;;;;;;;5034008;28;20037;-77
2022/07/19 04:31:46;;;;;;;10.07;8.82;;;;;;;;;;5034161;28;20460;-77
2022/07/19 04:34:12;;;;;;;10.23;9.23;;;;;;;;;;5034707;28;20045;-78
2022/07/19 04:36:38;;;;;;;10.68;9.68;;;;;;;;;;5034319;28;20169;-78
2022/07/19 04:39:04;;;;;;;11.13;9.00;;;;;;;;;;5034279;28;20045;-78
2022/07/19 04:41:30;;;;;;;10.65;9.25;;;;;;;;;;5034257;28;20038;-77
2022/07/19 04:43:57;;;;;;;10.43;8.90;;;;;;;;;;5036988;28;20049;-77
2022/07/19 04:46:23;;;;;;;12.13;8.70;;;;;;;;;;5038442;28;20053;-76
2022/07/19 04:48:49;;;;;;;16.67;9.35;;;;;;;;;;5039063;28;20044;-77
2022/07/19 04:51:15;;;;;;;11.65;8.60;;;;;;;;;;5038685;28;20038;-77
2022/07/19 04:53:41;;;;;;;12.10;9.30;;;;;;;;;;5039035;28;20041;-77
2022/07/19 04:56:07;;;;;;;9.30;8.45;;;;;;;;;;5038518;28;20056;-77
2022/07/19 04:58:33;;;;;;;11.45;8.63;;;;;;;;;;5038053;28;20120;-78
2022/07/19 05:01:00;;;;;;;10.65;8.65;;;;;;;;;;5038455;28;20069;-77
2022/07/19 05:03:26;;;;;;;9.65;8.60;;;;;;;;;;5037847;28;20045;-77
2022/07/19 05:05:52;;;;;;;9.95;8.63;;;;;;;;;;5038007;28;20048;-77
2022/07/19 05:08:18;;;;;;;9.48;8.07;;;;;;;;;;5038843;28;20041;-77
2022/07/19 05:10:44;;;;;;;9.65;8.75;;;;;;;;;;5038048;28;20049;-77
2022/07/19 05:13:10;;;;;;;9.82;8.82;;;;;;;;;;5038357;28;20487;-78
2022/07/19 05:15:36;;;;;;;9.45;8.25;;;;;;;;;;5038083;28;20496;-77
2022/07/19 05:18:02;;;;;;;9.70;8.00;;;;;;;;;;5038209;28;20053;-77
2022/07/19 05:20:29;;;;;;;8.60;7.90;;;;;;;;;;5038065;28;20480;-77
2022/07/19 05:22:55;;;;;;;9.02;8.20;;;;;;;;;;5037840;28;20041;-77
2022/07/19 05:25:21;;;;;;;11.20;9.55;;;;;;;;;;5037526;28;20079;-76
2022/07/19 05:27:47;;;;;;;9.73;8.80;;;;;;;;;;5020138;28;20399;-77
2022/07/19 05:30:13;;;;;;;10.10;8.95;;;;;;;;;;5037837;28;20094;-77
2022/07/19 05:32:40;;;;;;;9.50;8.43;;;;;;;;;;5037757;28;20075;-77
2022/07/19 05:35:06;;;;;;;9.40;8.20;;;;;;;;;;5037762;28;20049;-77
2022/07/19 05:37:32;;;;;;;8.80;8.10;;;;;;;;;;5037868;28;20484;-77
2022/07/19 05:39:58;;;;;;;9.70;8.00;;;;;;;;;;5037254;28;20041;-77
2022/07/19 05:42:25;;;;;;;11.73;8.85;;;;;;;;;;5037955;28;20140;-78
2022/07/19 05:44:51;;;;;;;9.23;8.32;;;;;;;;;;5037382;28;20041;-77
2022/07/19 05:47:17;;;;;;;11.20;8.48;;;;;;;;;;5036957;28;20057;-77
2022/07/19 05:49:44;;;;;;;9.02;8.23;;;;;;;;;;5036944;28;20041;-77
2022/07/19 05:52:10;;;;;;;8.38;7.57;;;;;;;;;;5037211;28;20063;-77
2022/07/19 05:54:36;;;;;;;8.57;7.50;;;;;;;;;;5036477;28;20080;-77
2022/07/19 05:57:02;;;;;;;8.90;8.00;;;;;;;;;;5036912;28;20132;-77
2022/07/19 05:59:29;;;;;;;8.05;7.25;;;;;;;;;;5037009;28;20041;-77
2022/07/19 06:01:55;;;;;;;9.10;7.50;;;;;;;;;;5036730;28;20128;-77
2022/07/19 06:04:21;;;;;;;16.15;7.65;;;;;;;;;;5037335;28;20049;-78
2022/07/19 06:06:47;;;;;;;8.90;7.38;;;;;;;;;;5036667;28;20041;-77
2022/07/19 06:09:15;;;;;;;7.65;6.95;;;;;;;;;;5037609;28;20029;-77
2022/07/19 06:11:42;;;;;;;7.80;7.00;;;;;;;;;;5036733;28;20037;-77
2022/07/19 06:14:09;;;;;;;7.07;6.15;;;;;;;;;;5036201;28;20072;-78
2022/07/19 06:16:36;;;;;;;6.70;6.13;;;;;;;;;;5036494;28;20049;-77
2022/07/19 06:19:02;;;;;;;7.07;6.38;;;;;;;;;;5036911;28;20083;-77
2022/07/19 06:21:28;;;;;;;7.55;6.72;;;;;;;;;;5036372;28;20373;-77
2022/07/19 06:23:54;;;;;;;6.60;6.10;;;;;;;;;;5036489;28;20052;-78
2022/07/19 06:26:20;;;;;;;6.18;5.57;;;;;;;;;;5036855;28;20037;-78
2022/07/19 06:28:46;;;;;;;9.88;5.78;;;;;;;;;;5036849;28;20038;-78
2022/07/19 06:31:13;;;;;;;6.35;5.55;;;;;;;;;;5036609;28;20037;-78
2022/07/19 06:33:40;;;;;;;5.55;5.07;;;;;;;;;;5036529;28;20073;-77
2022/07/19 06:36:06;;;;;;;6.03;5.50;;;;;;;;;;5035924;28;20049;-78
2022/07/19 06:38:32;;;;;;;5.88;5.10;;;;;;;;;;5036329;28;20037;-78
2022/07/19 06:40:58;;;;;;;5.45;5.00;;;;;;;;;;5036334;28;20044;-78
2022/07/19 06:43:24;;;;;;;5.65;5.15;;;;;;;;;;5036660;28;20085;-78
2022/07/19 06:45:51;;;;;;;6.50;5.40;;;;;;;;;;5035892;28;20144;-78
2022/07/19 06:48:17;;;;;;;4.80;4.40;;;;;;;;;;5036062;28;20044;-80
2022/07/19 06:50:43;;;;;;;5.40;4.90;;;;;;;;;;5035632;28;20123;-78
2022/07/19 06:53:09;;;;;;;5.07;4.57;;;;;;;;;;5035945;28;20036;-79
2022/07/19 06:55:36;;;;;;;4.72;4.32;;;;;;;;;;5035664;28;20045;-78
2022/07/19 06:58:02;;;;;;;6.57;4.88;;;;;;;;;;5021855;28;20044;-79
2022/07/19 07:00:28;;;;;;;5.35;4.22;;;;;;;;;;5027966;28;20041;-79
2022/07/19 07:02:54;;;;;;;4.70;4.30;;;;;;;;;;5015321;28;20046;-78
2022/07/19 07:05:21;;;;;;;6.53;4.68;;;;;;;;;;4998858;28;20049;-78
2022/07/19 07:07:48;;;;;;;5.20;4.25;;;;;;;;;;5014001;28;20045;-79
2022/07/19 07:10:15;;;;;;;5.57;4.13;;;;;;;;;;5018764;28;20048;-78
2022/07/19 07:12:41;;;;;;;5.43;3.72;;;;;;;;;;5011595;28;20041;-79
2022/07/19 07:15:08;;;;;;;4.22;3.90;;;;;;;;;;5012445;28;20125;-79
2022/07/19 07:17:34;;;;;;;3.92;3.63;;;;;;;;;;5013598;28;20045;-78
2022/07/19 07:20:01;;;;;;;4.32;3.63;;;;;;;;;;5014756;28;20038;-78
2022/07/19 07:22:27;;;;;;;3.97;3.67;;;;;;;;;;5015303;28;20061;-78
2022/07/19 07:24:53;;;;;;;4.15;3.85;;;;;;;;;;5014797;28;20049;-78
2022/07/19 07:27:19;;;;;;;5.68;4.38;;;;;;;;;;5014226;28;20038;-78
2022/07/19 07:29:46;;;;;;;4.43;3.97;;;;;;;;;;5014359;28;20046;-78
2022/07/19 07:32:12;;;;;;;4.40;4.00;;;;;;;;;;5033719;28;20033;-77
2022/07/19 07:34:38;;;;;;;4.18;3.75;;;;;;;;;;5028967;28;20084;-78
2022/07/19 07:37:05;;;;;;;4.45;4.05;;;;;;;;;;5014057;28;20046;-79
2022/07/19 07:39:31;;;;;;;5.25;3.78;;;;;;;;;;5014489;28;20038;-78
2022/07/19 07:41:57;;;;;;;5.15;4.25;;;;;;;;;;5014574;28;20033;-78
2022/07/19 07:44:23;;;;;;;6.00;4.18;;;;;;;;;;5022706;28;20124;-79
2022/07/19 07:46:49;;;;;;;5.28;3.92;;;;;;;;;;5014917;28;20133;-79
2022/07/19 07:49:16;;;;;;;4.80;3.70;;;;;;;;;;4994908;28;20062;-79
2022/07/19 07:51:42;;;;;;;4.85;4.32;;;;;;;;;;4995284;28;20065;-77
2022/07/19 07:54:08;;;;;;;4.80;4.35;;;;;;;;;;4993599;28;20053;-78
2022/07/19 07:56:36;;;;;;;8.82;4.90;;;;;;;;;;4994991;28;20232;-78
2022/07/19 07:59:42;;;;;;;7.97;5.20;;;;;;;;;;4993897;28;20042;-76
2022/07/19 08:02:08;;;;;;;5.68;4.55;;;;;;;;;;4934693;29;20552;-77
2022/07/19 08:04:34;;;;;;;6.78;4.80;;;;;;;;;;4982913;28;20068;-78
2022/07/19 08:07:00;;;;;;;5.22;4.72;;;;;;;;;;4994714;28;20050;-77
2022/07/19 08:09:27;;;;;;;5.05;4.43;;;;;;;;;;4976184;28;20034;-79
2022/07/19 08:11:53;;;;;;;6.35;4.40;;;;;;;;;;4994575;28;20042;-79
2022/07/19 08:14:37;;;;;;;4.43;4.10;;;;;;;;;;4995237;28;20109;-81
2022/07/19 08:17:03;;;;;;;6.47;4.80;;;;;;;;;;4994283;28;20506;-81
2022/07/19 08:19:29;;;;;;;5.82;5.00;;;;;;;;;;4994314;28;20485;-81
2022/07/19 08:21:55;;;;;;;7.75;5.00;;;;;;;;;;4994225;28;20520;-80
2022/07/19 08:24:21;;;;;;;5.72;4.72;;;;;;;;;;4994045;28;20061;-80
2022/07/19 08:26:47;;;;;;;4.90;4.38;;;;;;;;;;4994045;28;20034;-80
2022/07/19 08:29:13;;;;;;;4.85;4.45;;;;;;;;;;4962537;28;20491;-79
2022/07/19 08:31:40;;;;;;;4.80;4.30;;;;;;;;;;4992519;28;20128;-80
2022/07/19 08:34:06;;;;;;;5.10;4.70;;;;;;;;;;4997884;28;20034;-79
2022/07/19 08:36:32;;;;;;;4.80;4.50;;;;;;;;;;4993130;28;20046;-75
2022/07/19 08:38:58;;;;;;;5.45;4.70;;;;;;;;;;4991775;28;20493;-75
2022/07/19 08:41:24;;;;;;;5.55;5.03;;;;;;;;;;4974871;28;20039;-75
2022/07/19 08:43:51;;;;;;;5.20;4.68;;;;;;;;;;4977118;28;20048;-75
2022/07/19 08:46:19;;;;;;;4.55;4.22;;;;;;;;;;4986018;28;20045;-74
2022/07/19 08:48:46;;;;;;;5.82;5.15;;;;;;;;;;5014500;28;20562;-76
2022/07/19 08:51:12;;;;;;;4.70;4.30;;;;;;;;;;5014251;28;20132;-74
2022/07/19 08:53:40;;;;;;;7.47;4.80;;;;;;;;;;5014104;28;20161;-75
2022/07/19 08:57:56;;;;;;;5.25;4.60;;;;;;;;;;4984611;28;20096;-75
2022/07/19 08:58:53;;;;;;;4.95;4.55;;;;;;;;;;4993944;28;20108;-75
2022/07/19 09:01:20;;;;;;;5.55;4.75;;;;;;;;;;4994184;28;20166;-75
2022/07/19 09:04:05;;;;;;;5.82;4.85;;;;;;;;;;5004055;28;20439;-75
2022/07/19 09:06:42;;;;;;;5.00;4.55;;;;;;;;;;5012936;28;20045;-75
2022/07/19 09:09:08;;;;;;;5.70;4.95;;;;;;;;;;5013189;28;20042;-75
2022/07/19 09:11:35;;;;;;;5.03;4.63;;;;;;;;;;5013452;28;20041;-76
2022/07/19 09:14:05;;;;;;;5.00;4.45;;;;;;;;;;5011888;28;20041;-75
2022/07/19 09:16:50;;;;;;;5.20;4.78;;;;;;;;;;5012977;28;20044;-76
2022/07/19 09:19:17;;;;;;;7.03;4.47;;;;;;;;;;4992490;28;20401;-75
2022/07/19 09:21:57;;;;;;;5.57;4.38;;;;;;;;;;5014465;28;20037;-76
2022/07/19 09:24:23;;;;;;;;;;;;;;;;;;5014090;28;20042;-76
2022/07/19 09:26:58;;;;;;;4.82;4.40;;;;;;;;;;5012418;28;19964;-76
2022/07/19 09:29:24;;;;;;;4.43;4.05;;;;;;;;;;5013146;28;20048;-75
2022/07/19 09:32:00;;;;;;;4.55;4.15;;;;;;;;;;5017150;28;20124;-75
2022/07/19 09:34:30;;;;;;;6.57;4.30;;;;;;;;;;5014010;28;20046;-76
2022/07/19 09:37:08;;;;;;;4.88;4.47;;;;;;;;;;5017431;28;20053;-75
2022/07/19 09:39:34;;;;;;;5.43;4.10;;;;;;;;;;4998506;28;20046;-77
2022/07/19 09:42:04;;;;;;;6.45;4.60;;;;;;;;;;5016537;28;20049;-76
2022/07/19 09:44:30;;;;;;;5.13;4.20;;;;;;;;;;5016344;28;20044;-76
2022/07/19 09:46:56;;;;;;;8.52;4.57;;;;;;;;;;5017333;28;20104;-74
2022/07/19 09:49:22;;;;;;;4.78;4.43;;;;;;;;;;5016293;28;20527;-76
2022/07/19 09:51:51;;;;;;;4.75;3.88;;;;;;;;;;5017122;28;20041;-77
2022/07/19 09:54:18;;;;;;;4.38;3.97;;;;;;;;;;4999445;28;20535;-76
2022/07/19 09:56:45;;;;;;;7.53;5.00;;;;;;;;;;5016293;28;20042;-76
2022/07/19 09:59:12;;;;;;;7.10;4.80;;;;;;;;;;5015750;28;20389;-77
2022/07/19 10:01:38;;;;;;;5.13;4.60;;;;;;;;;;4998863;28;20623;-77
2022/07/19 10:04:14;;;;;;;5.07;4.57;;;;;;;;;;5017402;28;20044;-77
2022/07/19 10:06:41;;;;;;;6.00;4.35;;;;;;;;;;5017047;28;20046;-76
2022/07/19 10:09:11;;;;;;;5.15;4.68;;;;;;;;;;4999276;28;20034;-77
2022/07/19 10:11:38;;;;;;;4.63;4.25;;;;;;;;;;5010567;28;20097;-78
2022/07/19 10:14:04;;;;;;;6.63;4.22;;;;;;;;;;5015444;28;20045;-77
2022/07/19 10:16:48;;;;;;;5.10;4.35;;;;;;;;;;4998403;28;20042;-79
2022/07/19 10:19:19;;;;;;;4.95;4.20;;;;;;;;;;5012270;28;20057;-78
2022/07/19 10:21:47;;;;;;;7.55;4.40;;;;;;;;;;5015381;28;20092;-76
2022/07/19 10:24:42;;;;;;;7.25;4.70;;;;;;;;;;5015063;28;20046;-78
2022/07/19 10:27:08;;;;;;;4.57;4.05;;;;;;;;;;5011378;28;20038;-76
2022/07/19 10:29:34;;;;;;;6.07;4.40;;;;;;;;;;4998459;28;20045;-73
2022/07/19 10:32:05;;;;;;;4.35;3.92;;;;;;;;;;5015620;28;20488;-73
2022/07/19 10:34:31;;;;;;;5.55;4.40;;;;;;;;;;5014961;28;20048;-74
2022/07/19 10:36:57;;;;;;;7.40;4.20;;;;;;;;;;5015038;28;20096;-75
2022/07/19 10:39:29;;;;;;;4.75;4.25;;;;;;;;;;5015420;28;20129;-73
2022/07/19 10:42:16;;;;;;;11.38;7.18;;;;;;;;;;5015057;28;20056;-74
2022/07/19 10:44:59;;;;;;;19.20;9.80;;;;;;;;;;5014637;28;20057;-74
2022/07/19 10:47:36;;;;;;;10.00;5.25;;;;;;;;;;5015086;28;20046;-75
2022/07/19 10:50:02;;;;;;;14.15;8.32;;;;;;;;;;5005847;28;20086;-75
2022/07/19 10:52:29;;;;;;;13.48;7.85;;;;;;;;;;5012689;28;20165;-75
2022/07/19 10:55:14;;;;;;;8.15;5.07;;;;;;;;;;5012038;28;20050;-76
2022/07/19 10:57:40;;;;;;;6.10;4.38;;;;;;;;;;5007617;28;20046;-73
2022/07/19 11:00:17;;;;;;;4.68;4.28;;;;;;;;;;5013956;28;20512;-75
2022/07/19 11:02:44;;;;;;;5.25;4.10;;;;;;;;;;4995432;28;20034;-74
2022/07/19 11:05:27;;;;;;;5.05;3.92;;;;;;;;;;5015812;28;20128;-75
2022/07/19 11:07:54;;;;;;;6.13;3.80;;;;;;;;;;4997599;28;20100;-75
2022/07/19 11:10:28;;;;;;;3.88;3.33;;;;;;;;;;4998720;28;20132;-75
2022/07/19 11:12:55;;;;;;;3.58;3.28;;;;;;;;;;5015301;28;20068;-75
2022/07/19 11:15:22;;;;;;;4.13;3.65;;;;;;;;;;5008170;28;20049;-75
2022/07/19 11:17:54;;;;;;;6.90;4.05;;;;;;;;;;5014154;28;20044;-74
2022/07/19 11:20:23;;;;;;;5.07;3.65;;;;;;;;;;5014297;28;20053;-74
2022/07/19 11:22:49;;;;;;;5.63;3.80;;;;;;;;;;5014781;28;20030;-73
2022/07/19 11:25:17;;;;;;;5.30;3.55;;;;;;;;;;5015303;28;20120;-74
2022/07/19 11:27:45;;;;;;;3.85;3.42;;;;;;;;;;5014962;28;20042;-75
2022/07/19 11:30:12;;;;;;;4.75;3.42;;;;;;;;;;5014504;28;20534;-74
2022/07/19 11:32:41;;;;;;;5.93;3.70;;;;;;;;;;5014627;28;20076;-73
2022/07/19 11:35:09;;;;;;;8.90;3.20;;;;;;;;;;5014931;28;20046;-77
2022/07/19 11:37:38;;;;;;;6.25;3.10;;;;;;;;;;4997194;28;20042;-77
2022/07/19 11:40:05;;;;;;;6.45;3.53;;;;;;;;;;5013099;28;20052;-77
2022/07/19 11:42:42;;;;;;;3.33;3.03;;;;;;;;;;4996978;28;20085;-74
2022/07/19 11:45:17;;;;;;;6.07;3.33;;;;;;;;;;4994909;28;20121;-74
2022/07/19 11:47:50;;;;;;;5.15;3.63;;;;;;;;;;5014033;28;20033;-73
2022/07/19 11:50:18;;;;;;;5.63;3.30;;;;;;;;;;5014083;28;20041;-73
2022/07/19 11:52:51;;;;;;;7.63;3.47;;;;;;;;;;5014406;28;20181;-73
2022/07/19 11:55:19;;;;;;;7.03;3.20;;;;;;;;;;5014497;28;20041;-73
2022/07/19 11:57:45;;;;;;;5.88;3.40;;;;;;;;;;5014235;28;20042;-73
2022/07/19 12:00:12;;;;;;;4.40;2.90;;;;;;;;;;5015032;28;20042;-73
2022/07/19 12:02:58;;;;;;;3.50;3.13;;;;;;;;;;5014828;28;20124;-74
2022/07/19 12:05:27;;;;;;;5.88;3.03;;;;;;;;;;4999800;28;20046;-75
2022/07/19 12:07:56;;;;;;;5.47;3.35;;;;;;;;;;4997340;28;20070;-74
2022/07/19 12:10:50;;;;;;;5.65;3.20;;;;;;;;;;5001162;28;20553;-74
2022/07/19 12:13:33;;;;;;;5.10;3.33;;;;;;;;;;4986385;28;20500;-74
2022/07/19 12:16:08;;;;;;;7.35;3.40;;;;;;;;;;5012688;28;20056;-73
2022/07/19 12:18:44;;;;;;;4.70;2.92;;;;;;;;;;5012438;28;20129;-73
2022/07/19 12:21:18;;;;;;;4.10;2.67;;;;;;;;;;5004492;28;20045;-75
2022/07/19 12:24:04;;;;;;;4.68;2.92;;;;;;;;;;5012371;28;20061;-75
2022/07/19 12:26:30;;;;;;;6.82;2.80;;;;;;;;;;5013353;28;20488;-75
2022/07/19 12:28:56;;;;;;;6.20;3.30;;;;;;;;;;5014146;28;20053;-75
2022/07/19 12:31:22;;;;;;;6.00;3.00;;;;;;;;;;5013325;28;20052;-75
2022/07/19 12:33:58;;;;;;;5.68;3.20;;;;;;;;;;5017096;28;20554;-74
2022/07/19 12:36:37;;;;;;;5.22;2.90;;;;;;;;;;5031035;28;20129;-74
2022/07/19 12:39:03;;;;;;;3.67;2.47;;;;;;;;;;5012785;28;20030;-75
2022/07/19 12:41:29;;;;;;;4.78;2.70;;;;;;;;;;5013609;28;20444;-74
2022/07/19 12:43:55;;;;;;;4.60;2.70;;;;;;;;;;5013902;28;20092;-76
2022/07/19 12:46:22;;;;;;;3.95;2.88;;;;;;;;;;5012670;28;20050;-75
2022/07/19 12:48:48;;;;;;;4.05;2.53;;;;;;;;;;5007954;28;20049;-75
2022/07/19 12:51:14;;;;;;;3.97;2.60;;;;;;;;;;4995040;28;20037;-77
2022/07/19 12:53:40;;;;;;;4.70;2.28;;;;;;;;;;4994788;28;20493;-72
2022/07/19 12:56:06;;;;;;;4.57;2.70;;;;;;;;;;5012466;28;20046;-72
2022/07/19 13:01:17;;;;;;;7.53;2.33;;;;;;;;;;5010525;28;20037;-73
2022/07/19 13:03:43;;;;;;;4.35;2.58;;;;;;;;;;5014475;28;20116;-72
2022/07/19 13:06:10;;;;;;;5.78;2.22;;;;;;;;;;5017612;28;20394;-72
2022/07/19 13:08:36;;;;;;;6.03;2.42;;;;;;;;;;5015862;28;20053;-71
2022/07/19 13:11:02;;;;;;;4.38;2.30;;;;;;;;;;5017344;28;20030;-72
2022/07/19 13:13:28;;;;;;;2.90;2.35;;;;;;;;;;5016471;28;20172;-71
2022/07/19 13:15:55;;;;;;;7.07;2.58;;;;;;;;;;5016327;28;20046;-71
2022/07/19 13:18:22;;;;;;;4.10;2.13;;;;;;;;;;5017006;28;20084;-70
2022/07/19 13:20:48;;;;;;;8.32;2.83;;;;;;;;;;5017232;28;20038;-74
2022/07/19 13:23:14;;;;;;;6.30;2.60;;;;;;;;;;5016006;28;20038;-71
2022/07/19 13:25:40;;;;;;;8.50;2.95;;;;;;;;;;5016331;28;20155;-71
2022/07/19 13:28:06;;;;;;;2.80;2.28;;;;;;;;;;5015982;28;20566;-74
2022/07/19 13:30:32;;;;;;;7.65;2.65;;;;;;;;;;5015712;28;20061;-73
2022/07/19 13:32:58;;;;;;;3.00;2.17;;;;;;;;;;5017534;28;20065;-72
2022/07/19 13:35:25;;;;;;;5.80;2.50;;;;;;;;;;5017570;28;20135;-73
2022/07/19 13:37:51;;;;;;;3.25;2.25;;;;;;;;;;5017355;28;20041;-73
2022/07/19 13:40:17;;;;;;;5.32;2.65;;;;;;;;;;5017082;28;20042;-73
2022/07/19 13:42:43;;;;;;;4.55;2.40;;;;;;;;;;5015516;28;20089;-73
2022/07/19 13:45:10;;;;;;;3.63;2.30;;;;;;;;;;5015205;28;20046;-73
2022/07/19 13:47:38;;;;;;;6.32;2.83;;;;;;;;;;5015240;28;20077;-73
2022/07/19 13:50:05;;;;;;;4.80;2.72;;;;;;;;;;5015427;28;20784;-73
2022/07/19 13:52:31;;;;;;;3.33;2.35;;;;;;;;;;5015125;28;20092;-73
2022/07/19 13:54:57;;;;;;;3.55;2.20;;;;;;;;;;5015348;28;20132;-73
2022/07/19 13:57:24;;;;;;;3.88;2.50;;;;;;;;;;5017209;28;20574;-73
2022/07/19 13:59:50;;;;;;;2.72;2.50;;;;;;;;;;5017020;28;20045;-73
2022/07/19 14:02:16;;;;;;;3.42;2.53;;;;;;;;;;5018082;28;20038;-73
2022/07/19 14:04:42;;;;;;;3.08;2.30;;;;;;;;;;5017291;28;20100;-73
2022/07/19 14:07:08;;;;;;;4.50;2.65;;;;;;;;;;5017200;28;20133;-73
2022/07/19 14:09:36;;;;;;;8.57;3.03;;;;;;;;;;5016882;28;20121;-72
2022/07/19 14:12:02;;;;;;;3.30;2.78;;;;;;;;;;5017039;28;20120;-73
2022/07/19 14:14:28;;;;;;;5.30;2.42;;;;;;;;;;5016741;28;20080;-73
2022/07/19 14:16:54;;;;;;;3.88;2.10;;;;;;;;;;5016100;28;20412;-73
2022/07/19 14:19:20;;;;;;;4.22;2.70;;;;;;;;;;5016742;28;20038;-73
2022/07/19 14:21:46;;;;;;;4.65;2.42;;;;;;;;;;5016987;28;20048;-73
2022/07/19 14:24:12;;;;;;;4.57;2.90;;;;;;;;;;5017088;28;20046;-73
2022/07/19 14:26:39;;;;;;;4.38;2.67;;;;;;;;;;5017293;28;20539;-72
2022/07/19 14:29:05;;;;;;;3.75;2.38;;;;;;;;;;5016810;28;20052;-73
2022/07/19 14:31:31;;;;;;;5.78;2.70;;;;;;;;;;5017000;28;20038;-73
2022/07/19 14:33:57;;;;;;;8.55;2.75;;;;;;;;;;5016642;28;20034;-73
2022/07/19 14:36:23;;;;;;;4.50;2.30;;;;;;;;;;5016223;28;20061;-73
2022/07/19 14:38:49;;;;;;;2.30;2.10;;;;;;;;;;5016584;28;20042;-73
2022/07/19 14:41:15;;;;;;;3.58;2.50;;;;;;;;;;5016546;28;20041;-73
2022/07/19 14:43:42;;;;;;;2.60;2.40;;;;;;;;;;5016318;28;20576;-73
2022/07/19 14:46:08;;;;;;;4.30;2.40;;;;;;;;;;5016599;28;20061;-73
2022/07/19 14:48:34;;;;;;;5.25;2.30;;;;;;;;;;5016225;28;20440;-73